Time;durP1;ratioP1;P1;durP2;ratioP2;P2;SDS_P1;SDS_P2;PMS_P1;PMS_P2;Temp;Humidity;BMP_temperature;BMP_pressure;BME280_temperature;BME280_humidity;BME280_pressure;Samples;Min_cycle;Max_cycle;Signal;HPM_P1;HPM_P2
2023/03/24 00:01:03;;;;;;;8.33;6.90;;;;;;;14.04;55.38;95473.72;4989189;28;20412;-67
2023/03/24 00:03:29;;;;;;;10.93;7.00;;;;;;;14.04;55.22;95463.16;4988814;28;20270;-67
2023/03/24 00:06:03;;;;;;;9.10;8.03;;;;;;;14.14;55.08;95466.81;4988660;28;20436;-66
2023/03/24 00:08:35;;;;;;;15.30;7.23;;;;;;;14.21;54.66;95466.38;4989076;28;20446;-68
2023/03/24 00:11:03;;;;;;;17.73;8.23;;;;;;;14.25;54.50;95475.75;4989015;28;20474;-68
2023/03/24 00:13:30;;;;;;;10.73;7.80;;;;;;;14.06;55.38;95474.44;4988963;28;20779;-67
2023/03/24 00:15:57;;;;;;;8.13;7.33;;;;;;;14.16;54.80;95478.09;4988616;28;20436;-68
2023/03/24 00:18:24;;;;;;;8.10;7.30;;;;;;;14.23;54.74;95467.09;4989262;28;20507;-69
2023/03/24 00:20:57;;;;;;;6.83;5.83;;;;;;;14.23;54.93;95472.38;4989823;28;20495;-67
2023/03/24 00:23:26;;;;;;;12.73;7.50;;;;;;;14.15;55.54;95473.78;4989833;28;20459;-67
2023/03/24 00:26:07;;;;;;;8.50;6.30;;;;;;;14.22;54.80;95486.50;4989047;28;20436;-67
2023/03/24 00:28:35;;;;;;;11.33;6.23;;;;;;;14.23;54.59;95501.41;4988548;28;20420;-68
2023/03/24 00:31:02;;;;;;;7.83;6.73;;;;;;;14.06;56.02;95482.34;4981063;28;20528;-68
2023/03/24 00:33:34;;;;;;;8.63;6.77;;;;;;;13.94;56.25;95477.97;4969957;28;20425;-69
2023/03/24 00:36:04;;;;;;;8.60;6.07;;;;;;;14.09;55.53;95495.31;4969354;28;20805;-66
2023/03/24 00:38:30;;;;;;;9.67;6.80;;;;;;;14.17;55.95;95477.16;4969608;28;20425;-67
2023/03/24 00:40:57;;;;;;;7.83;6.57;;;;;;;14.16;56.07;95470.16;4968118;28;20468;-66
2023/03/24 00:43:23;;;;;;;6.73;6.13;;;;;;;14.04;56.21;95468.44;4968616;28;20580;-67
2023/03/24 00:45:51;;;;;;;10.50;6.87;;;;;;;14.13;55.66;95461.66;4969100;28;20505;-68
2023/03/24 00:48:18;;;;;;;9.63;7.33;;;;;;;14.07;55.75;95459.44;4969215;28;20429;-68
2023/03/24 00:50:46;;;;;;;11.20;7.70;;;;;;;14.09;56.23;95461.03;4969156;28;20445;-68
2023/03/24 00:53:15;;;;;;;16.67;9.90;;;;;;;14.08;55.89;95462.00;4969020;28;20421;-67
2023/03/24 00:55:46;;;;;;;19.90;11.97;;;;;;;14.03;56.16;95465.91;4968708;28;20537;-67
2023/03/24 00:58:17;;;;;;;24.77;12.03;;;;;;;14.02;55.66;95462.41;4969016;28;20923;-67
2023/03/24 01:00:48;;;;;;;22.87;12.43;;;;;;;13.84;57.34;95456.69;4968876;28;20523;-68
2023/03/24 01:03:14;;;;;;;21.23;11.97;;;;;;;13.82;56.39;95452.47;4968741;28;20465;-67
2023/03/24 01:05:46;;;;;;;20.63;10.37;;;;;;;13.91;56.83;95457.94;4968846;28;21089;-68
2023/03/24 01:08:19;;;;;;;15.20;9.63;;;;;;;13.82;57.41;95444.53;4968671;28;20774;-67
2023/03/24 01:10:49;;;;;;;7.30;6.60;;;;;;;13.34;59.15;95446.13;4968871;28;20417;-67
2023/03/24 01:13:25;;;;;;;8.87;7.80;;;;;;;13.62;57.47;95440.72;4968749;28;20564;-68
2023/03/24 01:15:51;;;;;;;11.30;6.90;;;;;;;13.55;57.71;95432.41;4968398;28;20447;-68
2023/03/24 01:18:18;;;;;;;10.27;7.07;;;;;;;13.70;57.04;95433.94;4968637;28;20911;-67
2023/03/24 01:20:45;;;;;;;18.33;8.03;;;;;;;13.79;56.77;95432.44;4968463;28;20208;-67
2023/03/24 01:23:13;;;;;;;10.00;7.27;;;;;;;13.80;57.22;95422.75;4966684;28;20550;-67
2023/03/24 01:25:41;;;;;;;8.57;6.50;;;;;;;13.40;58.05;95420.31;4968235;28;20448;-67
2023/03/24 01:28:07;;;;;;;10.67;8.33;;;;;;;13.50;58.60;95422.19;4968285;28;20451;-67
2023/03/24 01:30:32;;;;;;;8.23;7.43;;;;;;;13.51;58.49;95415.09;4973015;28;20712;-68
2023/03/24 01:32:58;;;;;;;8.50;7.10;;;;;;;13.58;58.24;95408.44;4987548;28;20173;-67
2023/03/24 01:35:25;;;;;;;7.57;6.90;;;;;;;13.64;58.32;95413.28;4987490;28;20204;-66
2023/03/24 01:37:51;;;;;;;9.13;7.67;;;;;;;13.53;58.14;95397.41;4987715;28;20240;-68
2023/03/24 01:40:22;;;;;;;8.30;6.97;;;;;;;13.66;58.07;95397.38;4987895;28;20408;-67
2023/03/24 01:42:48;;;;;;;13.80;7.47;;;;;;;13.73;58.09;95396.81;4988218;28;20543;-67
2023/03/24 01:45:43;;;;;;;11.03;7.60;;;;;;;13.65;58.00;95391.22;4988287;28;20424;-68
2023/03/24 01:48:28;;;;;;;15.00;7.73;;;;;;;13.64;58.17;95392.19;4987029;28;20435;-67
2023/03/24 01:51:16;;;;;;;15.13;7.50;;;;;;;13.67;57.43;95377.94;4988439;28;20499;-66
2023/03/24 01:53:48;;;;;;;7.07;6.40;;;;;;;13.72;57.04;95379.31;4988095;28;20416;-68
2023/03/24 01:56:14;;;;;;;8.00;6.57;;;;;;;13.68;57.48;95380.50;4987932;28;20428;-67
2023/03/24 01:58:46;;;;;;;8.57;7.10;;;;;;;13.76;57.53;95375.47;4987474;28;21234;-67
2023/03/24 02:01:11;;;;;;;7.73;6.30;;;;;;;13.73;57.08;95375.72;4987457;28;20168;-66
2023/03/24 02:03:39;;;;;;;9.60;6.60;;;;;;;13.73;57.38;95369.59;4987347;28;20471;-67
2023/03/24 02:06:07;;;;;;;10.47;6.50;;;;;;;13.63;57.28;95369.44;4987034;28;20551;-67
2023/03/24 02:08:35;;;;;;;7.43;6.73;;;;;;;13.65;57.89;95370.16;4987493;28;20497;-67
2023/03/24 02:11:01;;;;;;;11.47;6.50;;;;;;;13.49;57.67;95372.22;4987366;28;20477;-67
2023/03/24 02:13:27;;;;;;;8.13;7.00;;;;;;;13.42;57.67;95366.56;4987233;28;20521;-66
2023/03/24 02:16:33;;;;;;;7.60;6.77;;;;;;;13.44;58.14;95356.75;4987010;28;20460;-68
2023/03/24 02:19:22;;;;;;;7.83;7.03;;;;;;;13.52;57.70;95354.38;4987065;28;20251;-67
2023/03/24 02:22:15;;;;;;;9.00;6.30;;;;;;;13.47;57.18;95358.31;4987078;28;20447;-66
2023/03/24 02:25:12;;;;;;;6.90;6.20;;;;;;;13.50;57.31;95361.56;4985815;28;20530;-67
2023/03/24 02:28:02;;;;;;;9.53;6.20;;;;;;;13.54;57.68;95351.66;4986879;28;20400;-66
2023/03/24 02:30:49;;;;;;;8.53;6.00;;;;;;;13.52;57.23;95353.56;4983384;28;20471;-68
2023/03/24 02:33:35;;;;;;;8.13;7.03;;;;;;;13.61;57.52;95359.97;4967861;28;20413;-67
2023/03/24 02:36:14;;;;;;;6.60;6.00;;;;;;;13.65;57.08;95354.31;4967376;28;20444;-67
2023/03/24 02:39:13;;;;;;;7.03;5.77;;;;;;;13.61;56.79;95341.50;4967514;28;20508;-67
2023/03/24 02:41:51;;;;;;;8.03;6.77;;;;;;;13.63;57.19;95342.22;4967428;28;20902;-68
2023/03/24 02:44:20;;;;;;;18.80;9.27;;;;;;;13.61;57.19;95338.88;4967615;28;20462;-68
2023/03/24 02:46:58;;;;;;;14.83;7.53;;;;;;;13.70;56.97;95338.16;4967104;28;20441;-68
2023/03/24 02:49:42;;;;;;;9.73;7.50;;;;;;;13.71;57.15;95339.88;4967743;28;20417;-68
2023/03/24 02:52:21;;;;;;;10.40;7.30;;;;;;;13.60;57.13;95331.91;4967698;28;21035;-67
2023/03/24 02:55:01;;;;;;;9.73;7.30;;;;;;;13.66;57.31;95326.19;4966222;28;20448;-67
2023/03/24 02:57:35;;;;;;;9.53;6.90;;;;;;;13.60;57.03;95330.09;4967098;28;20408;-67
2023/03/24 03:00:09;;;;;;;10.77;7.23;;;;;;;13.46;58.43;95328.47;4967536;28;20904;-67
2023/03/24 03:02:41;;;;;;;8.10;7.30;;;;;;;13.54;58.17;95341.09;4965860;28;20515;-67
2023/03/24 03:05:15;;;;;;;8.00;7.20;;;;;;;13.61;58.02;95337.06;4967344;28;20416;-67
2023/03/24 03:07:44;;;;;;;10.77;6.97;;;;;;;13.67;58.03;95331.34;4970294;28;20576;-66
2023/03/24 03:10:16;;;;;;;8.40;6.47;;;;;;;13.64;57.35;95328.09;4970848;28;20405;-66
2023/03/24 03:12:45;;;;;;;10.43;8.00;;;;;;;13.60;57.93;95322.19;4970866;28;20413;-66
2023/03/24 03:15:25;;;;;;;11.77;7.40;;;;;;;13.54;58.04;95322.66;4970748;28;20408;-67
2023/03/24 03:17:57;;;;;;;9.57;6.57;;;;;;;13.57;57.45;95321.59;4968771;28;20417;-66
2023/03/24 03:20:25;;;;;;;8.13;7.33;;;;;;;13.58;57.91;95323.25;4970526;28;20413;-66
2023/03/24 03:22:59;;;;;;;13.43;8.13;;;;;;;13.61;56.78;95318.63;4970520;28;20542;-66
2023/03/24 03:25:30;;;;;;;7.87;7.00;;;;;;;13.63;57.21;95327.25;4971038;28;20428;-67
2023/03/24 03:27:59;;;;;;;8.40;7.30;;;;;;;13.63;57.32;95321.13;4981926;28;20409;-67
2023/03/24 03:30:29;;;;;;;7.60;6.87;;;;;;;13.58;57.44;95316.19;4984975;28;21101;-68
2023/03/24 03:33:04;;;;;;;11.03;7.47;;;;;;;13.57;56.97;95322.44;4999918;28;20511;-68
2023/03/24 03:35:48;;;;;;;7.73;6.93;;;;;;;13.64;56.63;95322.81;5000419;28;20664;-66
2023/03/24 03:38:52;;;;;;;11.43;7.83;;;;;;;13.57;57.04;95325.06;4999794;28;20408;-67
2023/03/24 03:41:18;;;;;;;12.23;7.87;;;;;;;13.59;56.90;95315.25;4997257;28;20520;-67
2023/03/24 03:43:46;;;;;;;14.43;7.37;;;;;;;13.61;56.75;95315.97;4989681;28;20961;-67
2023/03/24 03:46:13;;;;;;;8.90;7.53;;;;;;;13.57;57.13;95314.50;4989471;28;20519;-67
2023/03/24 03:48:39;;;;;;;7.63;6.93;;;;;;;13.53;56.87;95319.16;4989565;28;20435;-67
2023/03/24 03:51:05;;;;;;;12.33;7.67;;;;;;;13.61;57.39;95323.06;4989284;28;20420;-67
2023/03/24 03:53:42;;;;;;;7.90;7.20;;;;;;;13.57;57.53;95321.59;4989490;28;20570;-67
2023/03/24 03:56:08;;;;;;;26.30;8.50;;;;;;;13.54;57.67;95320.03;4989168;28;20474;-68
2023/03/24 03:58:34;;;;;;;10.80;7.30;;;;;;;13.50;57.34;95326.47;4989176;28;21002;-68
2023/03/24 04:01:02;;;;;;;10.80;7.90;;;;;;;13.47;57.81;95324.88;4989050;28;20412;-68
2023/03/24 04:03:48;;;;;;;8.60;7.70;;;;;;;13.43;57.93;95317.31;4989044;28;20200;-67
2023/03/24 04:06:27;;;;;;;7.90;7.10;;;;;;;13.31;58.66;95313.78;4988503;28;20446;-67
2023/03/24 04:09:20;;;;;;;8.87;7.97;;;;;;;13.36;58.19;95316.91;4988770;28;20412;-67
2023/03/24 04:11:57;;;;;;;10.73;8.53;;;;;;;13.39;58.20;95316.69;4984696;28;21009;-67
2023/03/24 04:14:53;;;;;;;7.70;7.00;;;;;;;13.30;58.33;95314.75;4988645;28;20544;-66
2023/03/24 04:17:29;;;;;;;7.73;6.93;;;;;;;13.25;58.58;95322.06;4988118;28;20885;-66
2023/03/24 04:20:11;;;;;;;7.93;6.90;;;;;;;13.23;58.66;95316.06;4986985;28;20424;-67
2023/03/24 04:22:57;;;;;;;12.27;7.70;;;;;;;13.21;58.64;95328.53;4988324;28;20483;-67
2023/03/24 04:25:28;;;;;;;8.27;7.13;;;;;;;13.21;58.81;95329.38;4984617;28;20515;-66
2023/03/24 04:28:25;;;;;;;8.20;6.93;;;;;;;13.19;58.96;95327.81;4987982;28;20412;-66
2023/03/24 04:31:06;;;;;;;8.70;7.30;;;;;;;13.17;59.66;95327.91;4981428;28;20413;-66
2023/03/24 04:33:49;;;;;;;9.60;7.50;;;;;;;13.22;59.35;95336.31;4968833;28;20508;-67
2023/03/24 04:36:21;;;;;;;8.77;7.87;;;;;;;13.18;60.28;95321.69;4968767;28;20528;-68
2023/03/24 04:38:52;;;;;;;10.50;8.23;;;;;;;13.19;60.18;95328.63;4968792;28;20652;-66
2023/03/24 04:41:21;;;;;;;8.03;7.23;;;;;;;13.18;60.70;95319.06;4968612;28;20519;-67
2023/03/24 04:43:47;;;;;;;8.77;7.33;;;;;;;13.20;60.77;95311.88;4968851;28;20556;-67
2023/03/24 04:46:16;;;;;;;7.70;6.90;;;;;;;13.21;60.43;95287.22;4968583;28;20440;-67
2023/03/24 04:48:48;;;;;;;8.23;7.43;;;;;;;13.07;60.91;95261.88;4968566;28;20735;-67
2023/03/24 04:51:15;;;;;;;12.67;6.90;;;;;;;12.95;62.05;95291.72;4968934;28;20413;-67
2023/03/24 04:53:41;;;;;;;14.10;7.93;;;;;;;13.03;61.96;95273.56;4968771;28;20417;-66
2023/03/24 04:56:17;;;;;;;17.73;7.47;;;;;;;13.13;61.82;95281.66;4968088;28;20437;-67
2023/03/24 04:58:43;;;;;;;9.23;7.67;;;;;;;13.12;62.07;95282.63;4968094;28;20548;-66
2023/03/24 05:01:08;;;;;;;16.90;8.73;;;;;;;13.06;62.26;95281.28;4968421;28;20413;-66
2023/03/24 05:03:36;;;;;;;13.93;8.53;;;;;;;13.20;62.03;95280.25;4968259;28;20566;-67
2023/03/24 05:06:04;;;;;;;16.13;8.20;;;;;;;13.16;62.23;95283.22;4968042;28;20201;-67
2023/03/24 05:08:30;;;;;;;18.57;9.40;;;;;;;13.13;61.67;95268.47;4968217;28;20448;-67
2023/03/24 05:10:56;;;;;;;16.37;7.70;;;;;;;13.12;62.01;95272.06;4968332;28;20472;-67
2023/03/24 05:13:21;;;;;;;11.03;7.20;;;;;;;13.06;61.84;95276.00;4968275;28;20233;-67
2023/03/24 05:15:46;;;;;;;8.00;7.20;;;;;;;13.03;62.39;95281.47;4969433;28;20216;-67
2023/03/24 05:18:12;;;;;;;12.23;7.33;;;;;;;13.05;62.55;95292.75;4969037;28;20180;-66
2023/03/24 05:20:37;;;;;;;8.97;7.43;;;;;;;13.00;62.52;95296.66;4968532;28;20178;-66
2023/03/24 05:23:03;;;;;;;22.17;8.90;;;;;;;13.14;62.66;95307.06;4968294;28;20209;-67
2023/03/24 05:25:28;;;;;;;14.90;8.20;;;;;;;13.13;61.99;95302.72;4968512;28;20387;-66
2023/03/24 05:27:54;;;;;;;22.07;8.30;;;;;;;13.13;62.55;95308.84;4968030;28;20166;-67
2023/03/24 05:30:19;;;;;;;20.87;9.30;;;;;;;13.22;61.95;95306.50;4969225;28;20185;-66
2023/03/24 05:32:45;;;;;;;10.93;7.80;;;;;;;13.22;61.96;95312.59;4987497;28;20173;-66
2023/03/24 05:35:11;;;;;;;15.53;8.13;;;;;;;13.28;61.45;95301.66;4977323;28;20239;-66
2023/03/24 05:37:36;;;;;;;8.80;7.90;;;;;;;13.28;61.71;95300.84;4972479;28;20595;-68
2023/03/24 05:40:01;;;;;;;8.63;7.73;;;;;;;13.31;61.61;95296.16;4974293;28;20279;-68
2023/03/24 05:42:27;;;;;;;12.20;7.80;;;;;;;13.18;62.13;95307.66;4986912;28;20661;-67
2023/03/24 05:44:52;;;;;;;9.13;7.43;;;;;;;13.26;62.00;95307.97;4987299;28;20940;-68
2023/03/24 05:47:19;;;;;;;7.93;7.13;;;;;;;13.31;60.88;95322.50;4986540;28;20193;-68
2023/03/24 05:49:47;;;;;;;12.13;6.80;;;;;;;13.31;61.58;95317.25;4985431;28;20200;-67
2023/03/24 05:52:15;;;;;;;9.80;6.90;;;;;;;13.34;61.49;95334.63;4984630;28;20648;-67
2023/03/24 05:54:41;;;;;;;9.67;7.13;;;;;;;13.36;61.02;95327.47;4993191;28;20419;-68
2023/03/24 05:57:09;;;;;;;10.80;7.53;;;;;;;13.30;60.65;95336.66;4980450;28;20429;-67
2023/03/24 05:59:34;;;;;;;10.23;6.20;;;;;;;13.25;61.61;95344.03;4965624;28;20186;-66
2023/03/24 06:02:00;;;;;;;8.30;7.50;;;;;;;13.28;61.16;95338.56;4964964;28;20902;-67
2023/03/24 06:04:29;;;;;;;11.03;7.27;;;;;;;13.26;60.76;95339.59;4978071;28;20208;-65
2023/03/24 06:07:01;;;;;;;39.37;8.70;;;;;;;13.79;60.46;95326.94;4988930;28;20585;-69
2023/03/24 06:09:28;;;;;;;17.00;7.83;;;;;;;13.96;59.81;95323.94;4992631;28;21249;-68
2023/03/24 06:11:57;;;;;;;10.13;7.40;;;;;;;13.63;60.34;95332.53;4987470;28;20454;-70
2023/03/24 06:14:22;;;;;;;10.70;8.23;;;;;;;13.50;60.74;95342.28;4998006;28;20439;-68
2023/03/24 06:16:49;;;;;;;10.90;7.73;;;;;;;13.43;61.68;95351.56;4994855;28;20459;-66
2023/03/24 06:19:15;;;;;;;7.17;6.23;;;;;;;13.33;62.34;95351.41;4984921;28;20518;-68
2023/03/24 06:21:41;;;;;;;8.43;7.50;;;;;;;13.34;61.97;95353.91;4990966;28;20467;-66
2023/03/24 06:24:06;;;;;;;8.10;6.80;;;;;;;13.29;62.14;95356.03;4978529;28;20984;-65
2023/03/24 06:26:32;;;;;;;7.83;7.03;;;;;;;13.26;62.47;95353.59;4984281;28;20224;-70
2023/03/24 06:28:58;;;;;;;6.67;6.07;;;;;;;13.24;63.28;95358.13;4967713;28;20170;-68
2023/03/24 06:31:24;;;;;;;12.20;7.50;;;;;;;13.22;63.34;95357.38;4976647;28;20260;-66
2023/03/24 06:33:50;;;;;;;8.73;6.90;;;;;;;13.23;63.21;95361.72;4983070;28;20284;-68
2023/03/24 06:36:17;;;;;;;7.50;6.73;;;;;;;13.23;62.91;95356.47;4968152;28;20288;-68
2023/03/24 06:38:44;;;;;;;11.15;6.70;;;;;;;13.31;62.81;95367.31;4975766;28;20433;-68
2023/03/24 06:41:10;;;;;;;9.70;8.70;;;;;;;13.36;62.89;95355.59;4974493;28;20200;-69
2023/03/24 06:43:36;;;;;;;7.03;6.30;;;;;;;13.33;62.57;95362.78;4977584;28;20455;-69
2023/03/24 06:46:02;;;;;;;7.63;5.90;;;;;;;13.39;63.31;95365.91;4984096;28;20802;-68
2023/03/24 06:48:28;;;;;;;5.53;4.97;;;;;;;13.37;62.42;95368.69;4980833;28;20646;-68
2023/03/24 06:50:54;;;;;;;11.10;5.87;;;;;;;13.39;63.02;95373.81;4986096;28;20435;-69
2023/03/24 06:53:21;;;;;;;12.83;6.80;;;;;;;13.31;63.58;95369.09;4984722;28;20511;-68
2023/03/24 06:55:49;;;;;;;6.70;5.50;;;;;;;13.43;63.43;95375.28;4983874;28;20506;-68
2023/03/24 06:58:16;;;;;;;6.60;5.87;;;;;;;13.41;63.81;95374.56;4979013;28;20670;-66
2023/03/24 07:00:43;;;;;;;11.40;5.97;;;;;;;13.44;63.85;95367.28;4978729;28;20582;-67
2023/03/24 07:03:08;;;;;;;12.33;5.20;;;;;;;13.57;64.02;95375.16;4983807;28;20467;-69
2023/03/24 07:05:38;;;;;;;6.30;5.23;;;;;;;13.54;63.60;95373.56;4983880;28;20973;-67
2023/03/24 07:08:04;;;;;;;9.30;6.43;;;;;;;13.51;63.43;95376.44;4985013;28;20177;-68
2023/03/24 07:10:30;;;;;;;6.73;5.20;;;;;;;13.57;63.48;95369.88;4977943;28;20472;-67
2023/03/24 07:12:56;;;;;;;6.23;5.60;;;;;;;13.58;63.22;95384.72;4976606;28;20177;-65
2023/03/24 07:15:22;;;;;;;8.97;6.13;;;;;;;13.67;62.91;95376.16;4978906;28;20273;-69
2023/03/24 07:17:48;;;;;;;6.87;5.77;;;;;;;13.57;63.45;95380.41;4979486;28;20185;-66
2023/03/24 07:20:14;;;;;;;10.97;5.40;;;;;;;13.63;63.12;95385.25;4979871;28;20428;-66
2023/03/24 07:22:40;;;;;;;10.23;6.30;;;;;;;13.64;63.85;95381.66;4976437;28;20204;-66
2023/03/24 07:25:06;;;;;;;14.27;5.57;;;;;;;13.72;63.04;95379.31;4987299;28;20423;-66
2023/03/24 07:27:32;;;;;;;8.20;5.63;;;;;;;13.62;64.34;95383.56;4987344;28;20181;-66
2023/03/24 07:29:59;;;;;;;8.83;6.07;;;;;;;13.69;64.09;95397.97;4987218;28;20413;-66
2023/03/24 07:32:27;;;;;;;9.20;5.80;;;;;;;13.66;64.39;95394.75;4967909;28;20417;-68
2023/03/24 07:34:53;;;;;;;6.50;5.60;;;;;;;13.67;64.76;95393.78;4968136;28;20421;-67
2023/03/24 07:37:18;;;;;;;6.60;6.00;;;;;;;13.73;64.05;95401.25;4967808;28;20440;-66
2023/03/24 07:39:44;;;;;;;6.77;5.70;;;;;;;13.78;64.62;95404.38;4969145;28;20177;-67
2023/03/24 07:42:09;;;;;;;8.70;5.33;;;;;;;13.83;64.15;95407.53;4969622;28;20190;-67
2023/03/24 07:44:35;;;;;;;8.77;5.60;;;;;;;13.88;63.38;95396.66;4970040;28;20643;-68
2023/03/24 07:47:00;;;;;;;6.57;5.87;;;;;;;13.89;63.88;95409.72;4981746;28;20201;-67
2023/03/24 07:49:26;;;;;;;6.80;5.53;;;;;;;13.87;64.51;95419.53;4978786;28;20236;-67
2023/03/24 07:51:51;;;;;;;13.27;5.77;;;;;;;13.87;64.94;95414.28;4990920;28;20593;-67
2023/03/24 07:54:17;;;;;;;15.90;6.20;;;;;;;13.92;64.12;95422.69;4978149;28;21004;-67
2023/03/24 07:56:42;;;;;;;10.17;6.03;;;;;;;13.89;64.30;95435.25;4994088;28;20199;-68
2023/03/24 07:59:11;;;;;;;7.10;5.23;;;;;;;13.89;64.98;95429.97;5001433;28;20778;-68
2023/03/24 08:01:37;;;;;;;9.43;6.30;;;;;;;13.83;65.26;95438.34;5002165;28;20227;-68
2023/03/24 08:04:05;;;;;;;8.13;6.87;;;;;;;13.93;65.17;95428.78;4992632;28;20523;-66
2023/03/24 08:06:30;;;;;;;11.85;7.03;;;;;;;14.05;64.84;95440.25;4995803;28;20427;-68
2023/03/24 08:08:56;;;;;;;10.77;7.63;;;;;;;14.03;65.02;95444.78;5008082;28;20537;-68
2023/03/24 08:11:21;;;;;;;17.27;7.90;;;;;;;14.00;65.61;95450.31;5006502;28;20403;-67
2023/03/24 08:13:47;;;;;;;11.30;6.70;;;;;;;14.02;65.81;95448.41;4993013;28;20176;-68
2023/03/24 08:16:12;;;;;;;11.85;6.60;;;;;;;14.07;65.83;95444.47;4983020;28;21084;-68
2023/03/24 08:18:38;;;;;;;11.33;6.87;;;;;;;13.98;65.85;95450.41;4989172;28;20417;-67
2023/03/24 08:21:03;;;;;;;9.47;6.60;;;;;;;13.97;66.40;95451.38;5001171;28;20227;-67
2023/03/24 08:23:29;;;;;;;9.17;6.47;;;;;;;14.01;67.19;95455.47;5001473;28;20565;-69
2023/03/24 08:25:55;;;;;;;15.18;7.10;;;;;;;14.05;66.34;95454.28;4978259;28;20458;-68
2023/03/24 08:28:20;;;;;;;25.97;9.00;;;;;;;14.06;67.00;95455.16;4989937;28;20177;-68
2023/03/24 08:30:46;;;;;;;18.30;6.80;;;;;;;14.05;67.80;95464.00;4994528;28;20185;-67
2023/03/24 08:33:14;;;;;;;25.17;7.50;;;;;;;14.01;67.41;95462.53;4999866;28;20164;-67
2023/03/24 08:35:40;;;;;;;16.20;6.50;;;;;;;14.02;67.03;95466.88;5007495;28;20215;-68
2023/03/24 08:38:07;;;;;;;9.90;6.43;;;;;;;14.00;67.02;95466.13;5003495;28;20487;-67
2023/03/24 08:40:33;;;;;;;11.70;6.63;;;;;;;14.02;67.01;95475.63;4993775;28;20423;-67
2023/03/24 08:43:01;;;;;;;9.57;6.97;;;;;;;14.02;67.43;95467.69;5000645;28;20475;-67
2023/03/24 08:45:29;;;;;;;18.93;7.00;;;;;;;13.98;68.31;95466.22;4986772;28;20455;-67
2023/03/24 08:47:57;;;;;;;16.40;7.07;;;;;;;14.07;67.18;95464.72;4998998;28;20411;-68
2023/03/24 08:50:26;;;;;;;11.02;6.10;;;;;;;14.14;66.99;95458.88;4974837;28;20811;-68
2023/03/24 08:52:53;;;;;;;10.83;6.90;;;;;;;14.03;67.66;95457.97;4974295;28;20249;-66
2023/03/24 08:55:19;;;;;;;12.30;7.40;;;;;;;14.06;68.48;95463.06;4972577;28;20930;-67
2023/03/24 08:57:46;;;;;;;10.90;6.50;;;;;;;14.07;68.92;95468.19;4981132;28;20459;-67
2023/03/24 09:00:14;;;;;;;14.53;6.50;;;;;;;14.09;68.19;95462.81;4972457;28;20487;-66
2023/03/24 09:02:44;;;;;;;7.20;6.50;;;;;;;14.11;68.00;95461.75;4968044;28;20468;-68
2023/03/24 09:05:10;;;;;;;9.40;5.67;;;;;;;14.14;68.37;95477.34;4969638;28;20971;-69
2023/03/24 09:07:36;;;;;;;7.47;5.80;;;;;;;14.18;68.65;95476.19;4978701;28;20428;-68
2023/03/24 09:10:01;;;;;;;7.27;5.60;;;;;;;14.23;68.12;95467.94;4987636;28;20927;-69
2023/03/24 09:12:27;;;;;;;6.07;5.47;;;;;;;14.27;68.33;95460.63;4972330;28;20269;-67
2023/03/24 09:14:52;;;;;;;6.33;4.90;;;;;;;14.28;67.93;95470.22;4983205;28;20224;-69
2023/03/24 09:17:18;;;;;;;8.10;5.47;;;;;;;14.29;68.46;95479.81;5006069;28;20921;-68
2023/03/24 09:19:44;;;;;;;15.57;6.10;;;;;;;14.23;68.54;95473.22;4985467;28;20181;-66
2023/03/24 09:22:10;;;;;;;16.47;6.57;;;;;;;14.15;69.13;95475.59;4993492;28;20191;-68
2023/03/24 09:24:36;;;;;;;8.60;6.10;;;;;;;14.17;69.28;95476.28;4989423;28;20173;-68
2023/03/24 09:27:02;;;;;;;13.83;6.20;;;;;;;14.24;69.07;95466.97;4986783;28;20940;-68
2023/03/24 09:29:28;;;;;;;5.90;5.30;;;;;;;14.18;67.97;95457.72;4992184;28;20263;-67
2023/03/24 09:31:55;;;;;;;5.33;4.50;;;;;;;14.25;67.56;95454.63;4974738;28;20186;-67
2023/03/24 09:34:21;;;;;;;5.63;4.70;;;;;;;14.13;67.88;95440.56;4990163;28;21070;-67
2023/03/24 09:36:47;;;;;;;6.40;4.83;;;;;;;14.24;67.46;95460.84;4971888;28;20440;-67
2023/03/24 09:39:12;;;;;;;6.17;4.73;;;;;;;14.32;66.78;95448.78;4968484;28;20205;-68
2023/03/24 09:41:38;;;;;;;8.13;5.10;;;;;;;14.36;nan;95438.81;4974136;28;20246;-67
2023/03/24 09:44:04;;;;;;;10.33;5.93;;;;;;;14.26;67.62;95414.91;4998567;28;20207;-69
2023/03/24 09:46:40;;;;;;;8.03;4.57;;;;;;;14.17;68.28;95390.09;5006373;28;20191;-68
2023/03/24 09:49:11;;;;;;;13.60;5.30;;;;;;;14.05;67.54;95366.38;5006628;28;20456;-68
2023/03/24 09:51:42;;;;;;;9.57;4.50;;;;;;;13.92;67.60;95358.56;4994774;28;20435;-68
2023/03/24 09:54:21;;;;;;;5.30;4.10;;;;;;;13.95;68.09;95348.59;5006755;28;20411;-68
2023/03/24 09:56:47;;;;;;;13.53;4.60;;;;;;;13.95;68.25;95401.34;5006497;28;20426;-67
2023/03/24 09:59:40;;;;;;;7.53;4.70;;;;;;;13.97;68.51;95409.16;4994164;28;20445;-66
2023/03/24 10:02:18;;;;;;;6.13;4.10;;;;;;;14.02;68.62;95416.75;4994265;28;21088;-65
2023/03/24 10:04:43;;;;;;;12.77;4.70;;;;;;;14.06;68.10;95437.50;4998406;28;21150;-67
2023/03/24 10:07:22;;;;;;;7.00;4.40;;;;;;;14.09;68.72;95447.84;4984503;28;20514;-66
2023/03/24 10:09:52;;;;;;;5.83;3.77;;;;;;;14.15;68.40;95452.66;4977123;28;20650;-66
2023/03/24 10:12:32;;;;;;;10.20;4.30;;;;;;;14.23;68.10;95456.53;4967403;28;20409;-67
2023/03/24 10:15:00;;;;;;;4.63;4.00;;;;;;;14.19;68.08;95435.63;4967907;28;20547;-67
2023/03/24 10:17:44;;;;;;;8.07;6.27;;;;;;;14.30;67.50;95434.03;4991668;28;20525;-66
2023/03/24 10:20:10;;;;;;;9.43;4.77;;;;;;;14.43;67.44;95442.69;4992750;28;20493;-67
2023/03/24 10:23:03;;;;;;;6.60;4.57;;;;;;;14.50;66.88;95443.91;4991161;28;20522;-66
2023/03/24 10:26:03;;;;;;;7.73;4.67;;;;;;;14.53;66.41;95443.72;4984993;28;20212;-67
2023/03/24 10:29:10;;;;;;;6.00;5.40;;;;;;;14.57;66.37;95450.47;4981561;28;20940;-67
2023/03/24 10:31:37;;;;;;;5.30;4.60;;;;;;;14.70;66.35;95437.19;4974001;28;20443;-67
2023/03/24 10:34:03;;;;;;;6.20;4.73;;;;;;;14.78;66.17;95437.44;4994046;28;21127;-66
2023/03/24 10:36:29;;;;;;;5.57;4.80;;;;;;;14.90;65.71;95437.47;5001045;28;20790;-65
2023/03/24 10:38:55;;;;;;;5.33;4.17;;;;;;;14.95;64.87;95444.09;4983629;28;20940;-66
2023/03/24 10:41:27;;;;;;;4.60;3.80;;;;;;;15.07;64.23;95431.75;4972941;28;20526;-66
2023/03/24 10:43:55;;;;;;;4.77;4.00;;;;;;;15.11;64.38;95443.72;4980802;28;20200;-66
2023/03/24 10:46:24;;;;;;;9.23;4.43;;;;;;;15.21;64.05;95438.56;4981757;28;20452;-66
2023/03/24 10:49:07;;;;;;;5.70;4.20;;;;;;;15.27;62.36;95446.03;4987702;28;20439;-66
2023/03/24 10:51:35;;;;;;;4.90;3.43;;;;;;;15.29;62.18;95449.41;4997442;28;20276;-67
2023/03/24 10:54:14;;;;;;;7.00;4.50;;;;;;;15.32;62.07;95437.75;4984002;28;20488;-67
2023/03/24 10:56:43;;;;;;;4.87;4.10;;;;;;;15.29;61.45;95436.19;4999930;28;20478;-67
2023/03/24 10:59:24;;;;;;;5.13;4.60;;;;;;;15.39;61.80;95441.59;4997721;28;20758;-67
2023/03/24 11:01:55;;;;;;;9.77;4.73;;;;;;;15.45;61.17;95451.69;4990894;28;20440;-67
2023/03/24 11:04:21;;;;;;;10.87;4.10;;;;;;;15.45;60.68;95441.97;4992696;28;20569;-67
2023/03/24 11:07:06;;;;;;;15.67;6.27;;;;;;;15.42;60.97;95441.34;4988474;28;20451;-67
2023/03/24 11:10:06;;;;;;;4.20;3.70;;;;;;;15.36;60.66;95436.56;4989252;28;20721;-66
2023/03/24 11:12:35;;;;;;;6.80;4.40;;;;;;;15.23;61.68;95441.94;4983013;28;20471;-68
2023/03/24 11:15:27;;;;;;;6.33;4.50;;;;;;;15.25;60.95;95445.31;5000551;28;20502;-68
2023/03/24 11:18:12;;;;;;;5.93;4.30;;;;;;;15.28;60.53;95452.16;4997655;28;20803;-67
2023/03/24 11:20:56;;;;;;;5.20;3.30;;;;;;;15.18;60.48;95442.31;4999925;28;20530;-67
2023/03/24 11:23:44;;;;;;;4.30;3.23;;;;;;;15.18;60.14;95438.81;5000739;28;20466;-68
2023/03/24 11:26:18;;;;;;;5.27;3.40;;;;;;;15.16;59.79;95436.28;4982038;28;20461;-68
2023/03/24 11:28:51;;;;;;;4.63;3.60;;;;;;;14.98;60.24;95430.63;4974182;28;20434;-67
2023/03/24 11:31:31;;;;;;;3.83;3.43;;;;;;;15.07;60.10;95415.03;4977216;28;20436;-66
2023/03/24 11:34:15;;;;;;;4.57;2.80;;;;;;;15.00;60.03;95386.44;4983823;28;20424;-67
2023/03/24 11:36:51;;;;;;;4.30;2.70;;;;;;;14.99;59.84;95407.69;4971635;28;20442;-67
2023/03/24 11:39:25;;;;;;;3.38;3.00;;;;;;;15.10;59.68;95406.88;4986313;28;20439;-68
2023/03/24 11:42:03;;;;;;;3.60;2.77;;;;;;;15.12;58.96;95407.56;4974910;28;20194;-69
2023/03/24 11:44:37;;;;;;;3.60;2.70;;;;;;;15.21;59.07;95414.78;4983699;28;20519;-68
2023/03/24 11:47:27;;;;;;;3.00;2.10;;;;;;;15.36;58.85;95431.28;4977222;28;20510;-68